sensor_id;sensor_type;location;lat;lon;timestamp;P1;durP1;ratioP1;P2;durP2;ratioP2
56746;SDS011;42623;49.978;9.966;2023-04-25T00:00:00;4.87;;;2.57;;
56746;SDS011;42623;49.978;9.966;2023-04-25T00:00:10;4.95;;;2.60;;
56746;SDS011;42623;49.978;9.966;2023-04-25T00:00:20;4.80;;;2.77;;
56746;SDS011;42623;49.978;9.966;2023-04-25T00:00:31;4.83;;;2.70;;
56746;SDS011;42623;49.978;9.966;2023-04-25T00:00:41;4.77;;;2.73;;
56746;SDS011;42623;49.978;9.966;2023-04-25T00:00:51;5.03;;;2.57;;
56746;SDS011;42623;49.978;9.966;2023-04-25T00:01:02;5.25;;;2.80;;
56746;SDS011;42623;49.978;9.966;2023-04-25T00:01:13;5.90;;;2.88;;
56746;SDS011;42623;49.978;9.966;2023-04-25T00:01:24;6.15;;;2.72;;
56746;SDS011;42623;49.978;9.966;2023-04-25T00:01:34;6.03;;;2.57;;
56746;SDS011;42623;49.978;9.966;2023-04-25T00:01:46;6.07;;;2.55;;
56746;SDS011;42623;49.978;9.966;2023-04-25T00:01:56;5.63;;;2.60;;
56746;SDS011;42623;49.978;9.966;2023-04-25T00:02:07;6.03;;;3.00;;
56746;SDS011;42623;49.978;9.966;2023-04-25T00:02:18;5.53;;;2.90;;
56746;SDS011;42623;49.978;9.966;2023-04-25T00:02:29;6.10;;;3.07;;
56746;SDS011;42623;49.978;9.966;2023-04-25T00:02:41;6.07;;;3.10;;
56746;SDS011;42623;49.978;9.966;2023-04-25T00:02:52;5.80;;;3.03;;
56746;SDS011;42623;49.978;9.966;2023-04-25T00:03:02;5.95;;;2.97;;
56746;SDS011;42623;49.978;9.966;2023-04-25T00:03:13;5.83;;;2.83;;
56746;SDS011;42623;49.978;9.966;2023-04-25T00:03:23;5.38;;;2.72;;
56746;SDS011;42623;49.978;9.966;2023-04-25T00:03:35;4.22;;;2.53;;
56746;SDS011;42623;49.978;9.966;2023-04-25T00:03:45;4.57;;;2.67;;
56746;SDS011;42623;49.978;9.966;2023-04-25T00:03:55;6.17;;;2.83;;
56746;SDS011;42623;49.978;9.966;2023-04-25T00:04:07;8.00;;;2.80;;
56746;SDS011;42623;49.978;9.966;2023-04-25T00:04:17;7.50;;;2.67;;
56746;SDS011;42623;49.978;9.966;2023-04-25T00:04:27;5.63;;;2.53;;
56746;SDS011;42623;49.978;9.966;2023-04-25T00:04:37;5.17;;;2.70;;
56746;SDS011;42623;49.978;9.966;2023-04-25T00:04:47;5.60;;;2.80;;
56746;SDS011;42623;49.978;9.966;2023-04-25T00:04:58;6.60;;;2.73;;
56746;SDS011;42623;49.978;9.966;2023-04-25T00:05:09;6.95;;;2.78;;
56746;SDS011;42623;49.978;9.966;2023-04-25T00:05:19;7.23;;;2.67;;
56746;SDS011;42623;49.978;9.966;2023-04-25T00:05:29;5.10;;;2.50;;
56746;SDS011;42623;49.978;9.966;2023-04-25T00:05:40;5.37;;;2.40;;
56746;SDS011;42623;49.978;9.966;2023-04-25T00:05:50;5.20;;;2.50;;
56746;SDS011;42623;49.978;9.966;2023-04-25T00:06:01;5.28;;;2.63;;
56746;SDS011;42623;49.978;9.966;2023-04-25T00:06:14;4.75;;;2.58;;
56746;SDS011;42623;49.978;9.966;2023-04-25T00:06:24;5.13;;;2.77;;
56746;SDS011;42623;49.978;9.966;2023-04-25T00:06:36;6.05;;;3.13;;
56746;SDS011;42623;49.978;9.966;2023-04-25T00:06:46;6.55;;;3.47;;
56746;SDS011;42623;49.978;9.966;2023-04-25T00:06:57;6.30;;;3.37;;
56746;SDS011;42623;49.978;9.966;2023-04-25T00:07:07;5.82;;;3.10;;
56746;SDS011;42623;49.978;9.966;2023-04-25T00:07:17;5.67;;;2.90;;
56746;SDS011;42623;49.978;9.966;2023-04-25T00:07:27;5.97;;;2.87;;
56746;SDS011;42623;49.978;9.966;2023-04-25T00:07:37;5.70;;;3.00;;
56746;SDS011;42623;49.978;9.966;2023-04-25T00:07:48;5.40;;;2.90;;
56746;SDS011;42623;49.978;9.966;2023-04-25T00:07:59;5.10;;;2.95;;
56746;SDS011;42623;49.978;9.966;2023-04-25T00:08:09;5.03;;;2.80;;
56746;SDS011;42623;49.978;9.966;2023-04-25T00:08:19;5.60;;;2.90;;
56746;SDS011;42623;49.978;9.966;2023-04-25T00:08:30;5.73;;;2.90;;
56746;SDS011;42623;49.978;9.966;2023-04-25T00:08:40;6.33;;;3.10;;
56746;SDS011;42623;49.978;9.966;2023-04-25T00:08:50;6.30;;;3.20;;
56746;SDS011;42623;49.978;9.966;2023-04-25T00:09:00;6.50;;;3.28;;
56746;SDS011;42623;49.978;9.966;2023-04-25T00:09:10;5.73;;;2.87;;
56746;SDS011;42623;49.978;9.966;2023-04-25T00:09:21;4.60;;;2.40;;
56746;SDS011;42623;49.978;9.966;2023-04-25T00:09:31;4.80;;;2.55;;
56746;SDS011;42623;49.978;9.966;2023-04-25T00:09:42;5.33;;;2.97;;
56746;SDS011;42623;49.978;9.966;2023-04-25T00:09:52;6.27;;;3.50;;
56746;SDS011;42623;49.978;9.966;2023-04-25T00:10:02;6.10;;;3.33;;
56746;SDS011;42623;49.978;9.966;2023-04-25T00:10:13;6.05;;;2.97;;
56746;SDS011;42623;49.978;9.966;2023-04-25T00:10:23;5.80;;;2.67;;
56746;SDS011;42623;49.978;9.966;2023-04-25T00:10:33;5.63;;;2.72;;
56746;SDS011;42623;49.978;9.966;2023-04-25T00:10:43;5.73;;;3.00;;
56746;SDS011;42623;49.978;9.966;2023-04-25T00:10:53;5.30;;;2.73;;
56746;SDS011;42623;49.978;9.966;2023-04-25T00:11:03;5.43;;;2.97;;
56746;SDS011;42623;49.978;9.966;2023-04-25T00:11:14;5.25;;;2.88;;
56746;SDS011;42623;49.978;9.966;2023-04-25T00:11:24;5.53;;;3.23;;
56746;SDS011;42623;49.978;9.966;2023-04-25T00:11:34;6.87;;;3.30;;
56746;SDS011;42623;49.978;9.966;2023-04-25T00:11:44;7.07;;;3.40;;
56746;SDS011;42623;49.978;9.966;2023-04-25T00:11:55;6.80;;;3.13;;
56746;SDS011;42623;49.978;9.966;2023-04-25T00:12:05;5.55;;;2.80;;
56746;SDS011;42623;49.978;9.966;2023-04-25T00:12:15;5.93;;;2.80;;
56746;SDS011;42623;49.978;9.966;2023-04-25T00:12:26;5.78;;;2.72;;
56746;SDS011;42623;49.978;9.966;2023-04-25T00:12:39;6.50;;;2.92;;
56746;SDS011;42623;49.978;9.966;2023-04-25T00:12:50;6.57;;;3.13;;
56746;SDS011;42623;49.978;9.966;2023-04-25T00:13:00;6.17;;;2.80;;
56746;SDS011;42623;49.978;9.966;2023-04-25T00:13:12;6.00;;;2.97;;
56746;SDS011;42623;49.978;9.966;2023-04-25T00:13:23;5.90;;;3.10;;
56746;SDS011;42623;49.978;9.966;2023-04-25T00:13:35;6.57;;;3.45;;
56746;SDS011;42623;49.978;9.966;2023-04-25T00:13:45;5.35;;;2.85;;
56746;SDS011;42623;49.978;9.966;2023-04-25T00:13:56;4.73;;;2.43;;
56746;SDS011;42623;49.978;9.966;2023-04-25T00:14:07;4.78;;;2.50;;
56746;SDS011;42623;49.978;9.966;2023-04-25T00:14:17;5.35;;;2.88;;
56746;SDS011;42623;49.978;9.966;2023-04-25T00:14:28;5.43;;;2.80;;
56746;SDS011;42623;49.978;9.966;2023-04-25T00:14:38;6.13;;;3.10;;
56746;SDS011;42623;49.978;9.966;2023-04-25T00:14:48;6.00;;;3.20;;
56746;SDS011;42623;49.978;9.966;2023-04-25T00:14:59;5.78;;;3.15;;
56746;SDS011;42623;49.978;9.966;2023-04-25T00:15:10;5.03;;;2.63;;
56746;SDS011;42623;49.978;9.966;2023-04-25T00:15:20;5.85;;;3.03;;
56746;SDS011;42623;49.978;9.966;2023-04-25T00:15:30;6.17;;;3.20;;
56746;SDS011;42623;49.978;9.966;2023-04-25T00:15:40;6.53;;;3.10;;
56746;SDS011;42623;49.978;9.966;2023-04-25T00:15:51;5.63;;;2.77;;
56746;SDS011;42623;49.978;9.966;2023-04-25T00:16:03;5.20;;;2.50;;
56746;SDS011;42623;49.978;9.966;2023-04-25T00:16:14;5.20;;;2.47;;
56746;SDS011;42623;49.978;9.966;2023-04-25T00:16:25;6.78;;;2.78;;
56746;SDS011;42623;49.978;9.966;2023-04-25T00:16:36;6.47;;;2.83;;
56746;SDS011;42623;49.978;9.966;2023-04-25T00:16:47;5.90;;;2.77;;
56746;SDS011;42623;49.978;9.966;2023-04-25T00:16:58;4.85;;;2.72;;
56746;SDS011;42623;49.978;9.966;2023-04-25T00:17:08;4.80;;;2.63;;
56746;SDS011;42623;49.978;9.966;2023-04-25T00:17:19;5.33;;;2.73;;
56746;SDS011;42623;49.978;9.966;2023-04-25T00:17:29;5.70;;;2.83;;
56746;SDS011;42623;49.978;9.966;2023-04-25T00:17:39;6.30;;;2.90;;
56746;SDS011;42623;49.978;9.966;2023-04-25T00:17:49;5.87;;;2.80;;
56746;SDS011;42623;49.978;9.966;2023-04-25T00:18:02;5.25;;;2.53;;
56746;SDS011;42623;49.978;9.966;2023-04-25T00:18:12;5.10;;;2.67;;
56746;SDS011;42623;49.978;9.966;2023-04-25T00:18:23;5.63;;;2.83;;
56746;SDS011;42623;49.978;9.966;2023-04-25T00:18:33;5.68;;;2.90;;
56746;SDS011;42623;49.978;9.966;2023-04-25T00:18:43;5.60;;;2.83;;
56746;SDS011;42623;49.978;9.966;2023-04-25T00:18:53;5.83;;;2.80;;
56746;SDS011;42623;49.978;9.966;2023-04-25T00:19:03;6.90;;;3.43;;
56746;SDS011;42623;49.978;9.966;2023-04-25T00:19:14;6.80;;;3.53;;
56746;SDS011;42623;49.978;9.966;2023-04-25T00:19:24;5.80;;;3.33;;
56746;SDS011;42623;49.978;9.966;2023-04-25T00:19:34;4.40;;;2.53;;
56746;SDS011;42623;49.978;9.966;2023-04-25T00:19:44;4.37;;;2.50;;
56746;SDS011;42623;49.978;9.966;2023-04-25T00:19:56;5.35;;;2.58;;
56746;SDS011;42623;49.978;9.966;2023-04-25T00:20:08;6.32;;;3.00;;
56746;SDS011;42623;49.978;9.966;2023-04-25T00:20:21;6.45;;;3.42;;
56746;SDS011;42623;49.978;9.966;2023-04-25T00:20:31;5.93;;;3.25;;
56746;SDS011;42623;49.978;9.966;2023-04-25T00:20:42;7.50;;;3.37;;
56746;SDS011;42623;49.978;9.966;2023-04-25T00:20:56;7.13;;;2.97;;
56746;SDS011;42623;49.978;9.966;2023-04-25T00:21:06;6.80;;;3.10;;
56746;SDS011;42623;49.978;9.966;2023-04-25T00:21:17;6.35;;;3.13;;
56746;SDS011;42623;49.978;9.966;2023-04-25T00:21:28;6.72;;;3.60;;
56746;SDS011;42623;49.978;9.966;2023-04-25T00:21:38;5.57;;;3.17;;
56746;SDS011;42623;49.978;9.966;2023-04-25T00:21:50;5.28;;;3.15;;
56746;SDS011;42623;49.978;9.966;2023-04-25T00:22:00;4.57;;;2.53;;
56746;SDS011;42623;49.978;9.966;2023-04-25T00:22:10;4.83;;;2.47;;
56746;SDS011;42623;49.978;9.966;2023-04-25T00:22:21;5.22;;;2.63;;
56746;SDS011;42623;49.978;9.966;2023-04-25T00:22:32;5.63;;;2.80;;
56746;SDS011;42623;49.978;9.966;2023-04-25T00:22:44;5.90;;;2.80;;
56746;SDS011;42623;49.978;9.966;2023-04-25T00:22:54;5.70;;;2.83;;
56746;SDS011;42623;49.978;9.966;2023-04-25T00:23:04;6.07;;;3.07;;
56746;SDS011;42623;49.978;9.966;2023-04-25T00:23:17;5.60;;;3.05;;
56746;SDS011;42623;49.978;9.966;2023-04-25T00:23:28;5.68;;;3.15;;
56746;SDS011;42623;49.978;9.966;2023-04-25T00:23:38;5.77;;;3.27;;
56746;SDS011;42623;49.978;9.966;2023-04-25T00:23:48;5.83;;;3.03;;
56746;SDS011;42623;49.978;9.966;2023-04-25T00:23:59;6.30;;;3.20;;
56746;SDS011;42623;49.978;9.966;2023-04-25T00:24:09;5.90;;;3.10;;
56746;SDS011;42623;49.978;9.966;2023-04-25T00:24:19;6.03;;;3.22;;
56746;SDS011;42623;49.978;9.966;2023-04-25T00:24:29;6.13;;;3.10;;
56746;SDS011;42623;49.978;9.966;2023-04-25T00:24:40;6.70;;;3.30;;
56746;SDS011;42623;49.978;9.966;2023-04-25T00:24:50;6.23;;;3.00;;
56746;SDS011;42623;49.978;9.966;2023-04-25T00:25:00;5.60;;;2.80;;
56746;SDS011;42623;49.978;9.966;2023-04-25T00:25:10;5.35;;;2.40;;
56746;SDS011;42623;49.978;9.966;2023-04-25T00:25:20;5.53;;;2.43;;
56746;SDS011;42623;49.978;9.966;2023-04-25T00:25:31;5.37;;;2.47;;
56746;SDS011;42623;49.978;9.966;2023-04-25T00:25:41;6.90;;;2.90;;
56746;SDS011;42623;49.978;9.966;2023-04-25T00:25:51;7.35;;;3.25;;
56746;SDS011;42623;49.978;9.966;2023-04-25T00:26:01;7.60;;;3.40;;
56746;SDS011;42623;49.978;9.966;2023-04-25T00:26:11;5.60;;;2.80;;
56746;SDS011;42623;49.978;9.966;2023-04-25T00:26:22;5.70;;;2.67;;
56746;SDS011;42623;49.978;9.966;2023-04-25T00:26:33;5.37;;;2.40;;
56746;SDS011;42623;49.978;9.966;2023-04-25T00:26:43;5.30;;;2.60;;
56746;SDS011;42623;49.978;9.966;2023-04-25T00:26:53;5.07;;;2.67;;
56746;SDS011;42623;49.978;9.966;2023-04-25T00:27:03;5.10;;;2.87;;
56746;SDS011;42623;49.978;9.966;2023-04-25T00:27:13;5.23;;;2.90;;
56746;SDS011;42623;49.978;9.966;2023-04-25T00:27:24;5.65;;;2.97;;
56746;SDS011;42623;49.978;9.966;2023-04-25T00:27:34;5.80;;;2.87;;
56746;SDS011;42623;49.978;9.966;2023-04-25T00:27:44;6.07;;;2.73;;
56746;SDS011;42623;49.978;9.966;2023-04-25T00:27:54;5.10;;;2.37;;
56746;SDS011;42623;49.978;9.966;2023-04-25T00:28:04;5.15;;;2.50;;
56746;SDS011;42623;49.978;9.966;2023-04-25T00:28:15;4.70;;;2.60;;
56746;SDS011;42623;49.978;9.966;2023-04-25T00:28:25;5.57;;;2.83;;
56746;SDS011;42623;49.978;9.966;2023-04-25T00:28:35;6.00;;;2.80;;
56746;SDS011;42623;49.978;9.966;2023-04-25T00:28:45;6.23;;;2.97;;
56746;SDS011;42623;49.978;9.966;2023-04-25T00:28:56;6.63;;;3.27;;
56746;SDS011;42623;49.978;9.966;2023-04-25T00:29:06;5.87;;;3.10;;
56746;SDS011;42623;49.978;9.966;2023-04-25T00:29:16;6.37;;;3.10;;
56746;SDS011;42623;49.978;9.966;2023-04-25T00:29:26;4.77;;;2.47;;
56746;SDS011;42623;49.978;9.966;2023-04-25T00:29:36;4.93;;;2.30;;
56746;SDS011;42623;49.978;9.966;2023-04-25T00:29:47;4.87;;;2.30;;
56746;SDS011;42623;49.978;9.966;2023-04-25T00:29:57;5.13;;;2.30;;
56746;SDS011;42623;49.978;9.966;2023-04-25T00:30:07;5.47;;;2.93;;
56746;SDS011;42623;49.978;9.966;2023-04-25T00:30:17;5.57;;;2.97;;
56746;SDS011;42623;49.978;9.966;2023-04-25T00:30:28;5.93;;;3.30;;
56746;SDS011;42623;49.978;9.966;2023-04-25T00:30:38;6.00;;;3.23;;
56746;SDS011;42623;49.978;9.966;2023-04-25T00:30:49;5.65;;;3.22;;
56746;SDS011;42623;49.978;9.966;2023-04-25T00:30:59;6.07;;;3.10;;
56746;SDS011;42623;49.978;9.966;2023-04-25T00:31:09;5.43;;;2.57;;
56746;SDS011;42623;49.978;9.966;2023-04-25T00:31:19;5.60;;;2.57;;
56746;SDS011;42623;49.978;9.966;2023-04-25T00:31:30;4.95;;;2.33;;
56746;SDS011;42623;49.978;9.966;2023-04-25T00:31:40;4.97;;;2.40;;
56746;SDS011;42623;49.978;9.966;2023-04-25T00:31:50;4.87;;;2.30;;
56746;SDS011;42623;49.978;9.966;2023-04-25T00:32:00;5.47;;;2.67;;
56746;SDS011;42623;49.978;9.966;2023-04-25T00:32:11;5.75;;;2.58;;
56746;SDS011;42623;49.978;9.966;2023-04-25T00:32:21;5.53;;;2.67;;
56746;SDS011;42623;49.978;9.966;2023-04-25T00:32:31;5.43;;;2.40;;
56746;SDS011;42623;49.978;9.966;2023-04-25T00:32:41;5.33;;;2.53;;
56746;SDS011;42623;49.978;9.966;2023-04-25T00:32:51;5.43;;;2.83;;
56746;SDS011;42623;49.978;9.966;2023-04-25T00:33:02;5.43;;;2.93;;
56746;SDS011;42623;49.978;9.966;2023-04-25T00:33:12;5.60;;;2.83;;
56746;SDS011;42623;49.978;9.966;2023-04-25T00:33:22;5.93;;;2.92;;
56746;SDS011;42623;49.978;9.966;2023-04-25T00:33:32;5.70;;;2.90;;
56746;SDS011;42623;49.978;9.966;2023-04-25T00:33:42;5.83;;;2.87;;
56746;SDS011;42623;49.978;9.966;2023-04-25T00:33:53;5.40;;;2.60;;
56746;SDS011;42623;49.978;9.966;2023-04-25T00:34:03;5.13;;;2.58;;
56746;SDS011;42623;49.978;9.966;2023-04-25T00:34:13;5.30;;;2.73;;
56746;SDS011;42623;49.978;9.966;2023-04-25T00:34:23;5.67;;;3.00;;
56746;SDS011;42623;49.978;9.966;2023-04-25T00:34:33;5.73;;;3.27;;
56746;SDS011;42623;49.978;9.966;2023-04-25T00:34:43;5.53;;;3.13;;
56746;SDS011;42623;49.978;9.966;2023-04-25T00:34:54;5.80;;;3.13;;
56746;SDS011;42623;49.978;9.966;2023-04-25T00:35:05;6.00;;;2.92;;
56746;SDS011;42623;49.978;9.966;2023-04-25T00:35:15;5.65;;;2.85;;
56746;SDS011;42623;49.978;9.966;2023-04-25T00:35:26;5.40;;;3.00;;
56746;SDS011;42623;49.978;9.966;2023-04-25T00:35:36;4.80;;;2.73;;
56746;SDS011;42623;49.978;9.966;2023-04-25T00:35:46;4.67;;;2.57;;
56746;SDS011;42623;49.978;9.966;2023-04-25T00:35:56;5.13;;;2.77;;
56746;SDS011;42623;49.978;9.966;2023-04-25T00:36:06;7.03;;;2.97;;
56746;SDS011;42623;49.978;9.966;2023-04-25T00:36:17;7.40;;;3.23;;
56746;SDS011;42623;49.978;9.966;2023-04-25T00:36:28;6.50;;;2.65;;
56746;SDS011;42623;49.978;9.966;2023-04-25T00:36:38;6.50;;;2.80;;
56746;SDS011;42623;49.978;9.966;2023-04-25T00:36:48;6.15;;;2.60;;
56746;SDS011;42623;49.978;9.966;2023-04-25T00:36:59;5.77;;;2.60;;
56746;SDS011;42623;49.978;9.966;2023-04-25T00:37:11;4.68;;;2.55;;
56746;SDS011;42623;49.978;9.966;2023-04-25T00:37:22;5.10;;;2.78;;
56746;SDS011;42623;49.978;9.966;2023-04-25T00:37:32;5.80;;;2.77;;
56746;SDS011;42623;49.978;9.966;2023-04-25T00:37:42;5.50;;;2.73;;
56746;SDS011;42623;49.978;9.966;2023-04-25T00:37:53;6.22;;;3.17;;
56746;SDS011;42623;49.978;9.966;2023-04-25T00:38:04;6.03;;;3.30;;
56746;SDS011;42623;49.978;9.966;2023-04-25T00:38:14;7.53;;;3.08;;
56746;SDS011;42623;49.978;9.966;2023-04-25T00:38:24;6.43;;;2.80;;
56746;SDS011;42623;49.978;9.966;2023-04-25T00:38:35;6.32;;;2.88;;
56746;SDS011;42623;49.978;9.966;2023-04-25T00:38:45;5.00;;;2.87;;
56746;SDS011;42623;49.978;9.966;2023-04-25T00:38:55;4.77;;;2.60;;
56746;SDS011;42623;49.978;9.966;2023-04-25T00:39:06;4.75;;;2.42;;
56746;SDS011;42623;49.978;9.966;2023-04-25T00:39:16;4.63;;;2.30;;
56746;SDS011;42623;49.978;9.966;2023-04-25T00:39:26;14.27;;;2.47;;
56746;SDS011;42623;49.978;9.966;2023-04-25T00:39:36;14.40;;;2.70;;
56746;SDS011;42623;49.978;9.966;2023-04-25T00:39:46;14.47;;;2.80;;
56746;SDS011;42623;49.978;9.966;2023-04-25T00:39:57;5.07;;;2.77;;
56746;SDS011;42623;49.978;9.966;2023-04-25T00:40:08;5.80;;;3.20;;
56746;SDS011;42623;49.978;9.966;2023-04-25T00:40:18;6.87;;;3.53;;
56746;SDS011;42623;49.978;9.966;2023-04-25T00:40:28;7.47;;;3.75;;
56746;SDS011;42623;49.978;9.966;2023-04-25T00:40:38;7.03;;;3.33;;
56746;SDS011;42623;49.978;9.966;2023-04-25T00:40:48;5.73;;;2.63;;
56746;SDS011;42623;49.978;9.966;2023-04-25T00:40:59;5.10;;;2.60;;
56746;SDS011;42623;49.978;9.966;2023-04-25T00:41:09;4.93;;;2.50;;
56746;SDS011;42623;49.978;9.966;2023-04-25T00:41:19;5.25;;;2.72;;
56746;SDS011;42623;49.978;9.966;2023-04-25T00:41:30;5.77;;;2.87;;
56746;SDS011;42623;49.978;9.966;2023-04-25T00:41:40;6.07;;;3.22;;
56746;SDS011;42623;49.978;9.966;2023-04-25T00:41:50;5.60;;;3.13;;
56746;SDS011;42623;49.978;9.966;2023-04-25T00:42:03;4.40;;;2.47;;
56746;SDS011;42623;49.978;9.966;2023-04-25T00:42:13;4.57;;;2.43;;
56746;SDS011;42623;49.978;9.966;2023-04-25T00:42:24;5.23;;;2.67;;
56746;SDS011;42623;49.978;9.966;2023-04-25T00:42:34;5.53;;;3.00;;
56746;SDS011;42623;49.978;9.966;2023-04-25T00:42:45;5.72;;;3.05;;
56746;SDS011;42623;49.978;9.966;2023-04-25T00:42:56;5.72;;;3.00;;
56746;SDS011;42623;49.978;9.966;2023-04-25T00:43:06;5.87;;;3.03;;
56746;SDS011;42623;49.978;9.966;2023-04-25T00:43:16;5.38;;;2.95;;
56746;SDS011;42623;49.978;9.966;2023-04-25T00:43:26;5.70;;;3.20;;
56746;SDS011;42623;49.978;9.966;2023-04-25T00:43:37;5.17;;;2.90;;
56746;SDS011;42623;49.978;9.966;2023-04-25T00:43:48;5.20;;;2.72;;
56746;SDS011;42623;49.978;9.966;2023-04-25T00:43:59;4.45;;;2.40;;
56746;SDS011;42623;49.978;9.966;2023-04-25T00:44:09;4.70;;;2.83;;
56746;SDS011;42623;49.978;9.966;2023-04-25T00:44:21;4.95;;;2.80;;
56746;SDS011;42623;49.978;9.966;2023-04-25T00:44:31;5.35;;;2.92;;
56746;SDS011;42623;49.978;9.966;2023-04-25T00:44:44;5.78;;;2.78;;
56746;SDS011;42623;49.978;9.966;2023-04-25T00:44:54;6.37;;;2.67;;
56746;SDS011;42623;49.978;9.966;2023-04-25T00:45:05;6.78;;;2.78;;
56746;SDS011;42623;49.978;9.966;2023-04-25T00:45:17;7.93;;;2.60;;
56746;SDS011;42623;49.978;9.966;2023-04-25T00:45:28;6.80;;;2.50;;
56746;SDS011;42623;49.978;9.966;2023-04-25T00:45:41;4.63;;;2.38;;
56746;SDS011;42623;49.978;9.966;2023-04-25T00:45:52;5.47;;;2.95;;
56746;SDS011;42623;49.978;9.966;2023-04-25T00:46:03;5.95;;;3.25;;
56746;SDS011;42623;49.978;9.966;2023-04-25T00:46:13;6.17;;;3.37;;
56746;SDS011;42623;49.978;9.966;2023-04-25T00:46:23;5.93;;;3.20;;
56746;SDS011;42623;49.978;9.966;2023-04-25T00:46:33;5.82;;;2.90;;
56746;SDS011;42623;49.978;9.966;2023-04-25T00:46:45;5.70;;;2.95;;
56746;SDS011;42623;49.978;9.966;2023-04-25T00:46:55;6.05;;;2.95;;
56746;SDS011;42623;49.978;9.966;2023-04-25T00:47:06;6.47;;;3.30;;
56746;SDS011;42623;49.978;9.966;2023-04-25T00:47:17;6.40;;;3.05;;
56746;SDS011;42623;49.978;9.966;2023-04-25T00:47:27;7.47;;;3.07;;
56746;SDS011;42623;49.978;9.966;2023-04-25T00:47:38;8.52;;;3.13;;
56746;SDS011;42623;49.978;9.966;2023-04-25T00:47:48;8.98;;;3.53;;
56746;SDS011;42623;49.978;9.966;2023-04-25T00:47:58;7.60;;;3.77;;
56746;SDS011;42623;49.978;9.966;2023-04-25T00:48:09;7.23;;;3.63;;
56746;SDS011;42623;49.978;9.966;2023-04-25T00:48:22;6.37;;;3.27;;
56746;SDS011;42623;49.978;9.966;2023-04-25T00:48:32;5.28;;;2.83;;
56746;SDS011;42623;49.978;9.966;2023-04-25T00:48:42;4.27;;;2.60;;
56746;SDS011;42623;49.978;9.966;2023-04-25T00:48:52;5.33;;;2.77;;
56746;SDS011;42623;49.978;9.966;2023-04-25T00:49:03;5.70;;;2.90;;
56746;SDS011;42623;49.978;9.966;2023-04-25T00:49:14;6.50;;;3.38;;
56746;SDS011;42623;49.978;9.966;2023-04-25T00:49:26;5.45;;;3.15;;
56746;SDS011;42623;49.978;9.966;2023-04-25T00:49:36;5.23;;;2.80;;
56746;SDS011;42623;49.978;9.966;2023-04-25T00:49:46;5.07;;;2.77;;
56746;SDS011;42623;49.978;9.966;2023-04-25T00:49:56;5.23;;;2.80;;
56746;SDS011;42623;49.978;9.966;2023-04-25T00:50:07;5.03;;;2.83;;
56746;SDS011;42623;49.978;9.966;2023-04-25T00:50:17;5.07;;;2.78;;
56746;SDS011;42623;49.978;9.966;2023-04-25T00:50:27;5.43;;;3.13;;
56746;SDS011;42623;49.978;9.966;2023-04-25T00:50:37;6.37;;;3.40;;
56746;SDS011;42623;49.978;9.966;2023-04-25T00:50:57;6.88;;;3.45;;
56746;SDS011;42623;49.978;9.966;2023-04-25T00:51:07;5.45;;;2.65;;
56746;SDS011;42623;49.978;9.966;2023-04-25T00:51:21;4.93;;;2.43;;
56746;SDS011;42623;49.978;9.966;2023-04-25T00:51:31;5.38;;;2.80;;
56746;SDS011;42623;49.978;9.966;2023-04-25T00:51:43;5.40;;;2.90;;
56746;SDS011;42623;49.978;9.966;2023-04-25T00:51:54;5.30;;;2.90;;
56746;SDS011;42623;49.978;9.966;2023-04-25T00:52:05;5.47;;;2.83;;
56746;SDS011;42623;49.978;9.966;2023-04-25T00:52:15;5.32;;;3.00;;
56746;SDS011;42623;49.978;9.966;2023-04-25T00:52:25;5.53;;;2.83;;
56746;SDS011;42623;49.978;9.966;2023-04-25T00:52:36;6.17;;;3.10;;
56746;SDS011;42623;49.978;9.966;2023-04-25T00:52:47;5.93;;;2.85;;
56746;SDS011;42623;49.978;9.966;2023-04-25T00:52:57;5.40;;;2.87;;
56746;SDS011;42623;49.978;9.966;2023-04-25T00:53:08;5.18;;;3.15;;
56746;SDS011;42623;49.978;9.966;2023-04-25T00:53:20;5.15;;;3.15;;
56746;SDS011;42623;49.978;9.966;2023-04-25T00:53:31;5.10;;;2.70;;
56746;SDS011;42623;49.978;9.966;2023-04-25T00:53:42;5.35;;;2.80;;
56746;SDS011;42623;49.978;9.966;2023-04-25T00:53:52;5.90;;;3.03;;
56746;SDS011;42623;49.978;9.966;2023-04-25T00:54:03;6.18;;;3.30;;
56746;SDS011;42623;49.978;9.966;2023-04-25T00:54:13;6.03;;;2.93;;
56746;SDS011;42623;49.978;9.966;2023-04-25T00:54:24;6.25;;;2.70;;
56746;SDS011;42623;49.978;9.966;2023-04-25T00:54:34;6.80;;;2.73;;
56746;SDS011;42623;49.978;9.966;2023-04-25T00:54:44;6.55;;;2.78;;
56746;SDS011;42623;49.978;9.966;2023-04-25T00:54:54;5.67;;;2.80;;
56746;SDS011;42623;49.978;9.966;2023-04-25T00:55:05;4.83;;;2.53;;
56746;SDS011;42623;49.978;9.966;2023-04-25T00:55:15;5.73;;;2.93;;
56746;SDS011;42623;49.978;9.966;2023-04-25T00:55:25;6.35;;;3.10;;
56746;SDS011;42623;49.978;9.966;2023-04-25T00:55:35;6.33;;;3.20;;
56746;SDS011;42623;49.978;9.966;2023-04-25T00:55:46;6.20;;;3.17;;
56746;SDS011;42623;49.978;9.966;2023-04-25T00:55:56;6.85;;;3.28;;
56746;SDS011;42623;49.978;9.966;2023-04-25T00:56:06;6.97;;;3.20;;
56746;SDS011;42623;49.978;9.966;2023-04-25T00:56:17;6.57;;;2.83;;
56746;SDS011;42623;49.978;9.966;2023-04-25T00:56:27;6.03;;;2.70;;
56746;SDS011;42623;49.978;9.966;2023-04-25T00:56:37;6.07;;;2.77;;
56746;SDS011;42623;49.978;9.966;2023-04-25T00:56:48;5.75;;;2.80;;
56746;SDS011;42623;49.978;9.966;2023-04-25T00:56:58;5.23;;;2.70;;
56746;SDS011;42623;49.978;9.966;2023-04-25T00:57:08;6.10;;;2.93;;
56746;SDS011;42623;49.978;9.966;2023-04-25T00:57:18;6.37;;;3.20;;
56746;SDS011;42623;49.978;9.966;2023-04-25T00:57:29;6.63;;;3.40;;
56746;SDS011;42623;49.978;9.966;2023-04-25T00:57:39;6.57;;;3.70;;
56746;SDS011;42623;49.978;9.966;2023-04-25T00:57:50;6.13;;;3.30;;
56746;SDS011;42623;49.978;9.966;2023-04-25T00:58:00;6.33;;;3.33;;
56746;SDS011;42623;49.978;9.966;2023-04-25T00:58:10;5.70;;;3.03;;
56746;SDS011;42623;49.978;9.966;2023-04-25T00:58:21;6.23;;;3.40;;
56746;SDS011;42623;49.978;9.966;2023-04-25T00:58:31;6.47;;;3.33;;
56746;SDS011;42623;49.978;9.966;2023-04-25T00:58:42;6.53;;;3.30;;
56746;SDS011;42623;49.978;9.966;2023-04-25T00:58:53;6.05;;;3.17;;
56746;SDS011;42623;49.978;9.966;2023-04-25T00:59:06;7.45;;;3.40;;
56746;SDS011;42623;49.978;9.966;2023-04-25T00:59:16;7.15;;;3.22;;
56746;SDS011;42623;49.978;9.966;2023-04-25T00:59:27;5.30;;;2.83;;
56746;SDS011;42623;49.978;9.966;2023-04-25T00:59:37;5.43;;;2.92;;
56746;SDS011;42623;49.978;9.966;2023-04-25T00:59:48;5.93;;;3.13;;
56746;SDS011;42623;49.978;9.966;2023-04-25T01:00:00;5.50;;;2.92;;
56746;SDS011;42623;49.978;9.966;2023-04-25T01:00:10;5.67;;;3.10;;
56746;SDS011;42623;49.978;9.966;2023-04-25T01:00:21;6.47;;;3.37;;
56746;SDS011;42623;49.978;9.966;2023-04-25T01:00:31;6.27;;;3.33;;
56746;SDS011;42623;49.978;9.966;2023-04-25T01:00:41;5.90;;;2.87;;
56746;SDS011;42623;49.978;9.966;2023-04-25T01:00:52;5.47;;;2.80;;
56746;SDS011;42623;49.978;9.966;2023-04-25T01:01:02;5.88;;;3.17;;
56746;SDS011;42623;49.978;9.966;2023-04-25T01:01:12;6.30;;;3.50;;
56746;SDS011;42623;49.978;9.966;2023-04-25T01:01:23;6.97;;;3.78;;
56746;SDS011;42623;49.978;9.966;2023-04-25T01:01:33;7.67;;;3.87;;
56746;SDS011;42623;49.978;9.966;2023-04-25T01:01:43;7.93;;;3.93;;
56746;SDS011;42623;49.978;9.966;2023-04-25T01:01:54;7.03;;;3.50;;
56746;SDS011;42623;49.978;9.966;2023-04-25T01:02:04;6.18;;;3.17;;
56746;SDS011;42623;49.978;9.966;2023-04-25T01:02:15;5.67;;;2.93;;
56746;SDS011;42623;49.978;9.966;2023-04-25T01:02:25;6.13;;;3.27;;
56746;SDS011;42623;49.978;9.966;2023-04-25T01:02:35;6.35;;;3.28;;
56746;SDS011;42623;49.978;9.966;2023-04-25T01:02:45;8.00;;;3.60;;
56746;SDS011;42623;49.978;9.966;2023-04-25T01:02:56;7.47;;;3.17;;
56746;SDS011;42623;49.978;9.966;2023-04-25T01:03:06;7.95;;;3.17;;
56746;SDS011;42623;49.978;9.966;2023-04-25T01:03:17;6.13;;;2.90;;
56746;SDS011;42623;49.978;9.966;2023-04-25T01:03:30;6.80;;;3.42;;
56746;SDS011;42623;49.978;9.966;2023-04-25T01:03:42;6.40;;;3.28;;